Besuchen Sie unsere anderen Wetter Stationen:

Template documentation
and downloads

And another site



METAR-Meldungen aus der Umgebung


Warning: A non-numeric value encountered in /is/htdocs/wp10906056_0YHW7Q9XB7/www/weather28/metar/metarDisplay.php on line 166

Warning: A non-numeric value encountered in /is/htdocs/wp10906056_0YHW7Q9XB7/www/weather28/metar/metarDisplay.php on line 166

Warning: A non-numeric value encountered in /is/htdocs/wp10906056_0YHW7Q9XB7/www/weather28/metar/metarDisplay.php on line 166

Warning: A non-numeric value encountered in /is/htdocs/wp10906056_0YHW7Q9XB7/www/weather28/metar/metarDisplay.php on line 166
   
EBAW - Antwerp
Aktualisierung: 20-02-2019 08:50
Klar  
Klar  
   Wind: SSW 13 km/h
Wind: SSW 13 km/h
Temperatur: 5°C
Gefühlt: 2°C
Taupunkt: 3°C
Luftfeuchte: 87%
Luftdruck: 1022 hPa
Sichtbarkeit: More than 10 km
Bewölkung: Klar
EBAW 200750Z 21007KT CAVOK 05/03 Q1022 NOSIG
EBLG - Liège
Aktualisierung: 20-02-2019 08:50
Teilweise bewölkt  
Teilweise bewölkt  
   Wind: Süden 14.8 km/h
Wind: Süden 14.8 km/h
Temperatur: 4°C
Gefühlt: 1°C
Taupunkt: 2°C
Luftfeuchte: 87%
Luftdruck: 1022 hPa
Bewölkt: Teilweise bewölkt
Sichtbarkeit: 8 km
Bewölkung: Teilweise bewölkt
EBLG 200750Z 19008KT 8000 NSC 04/02 Q1022 NOSIG
EBCV - Mons/Bergen
Aktualisierung: 20-02-2019 09:17
Nebel, Stark bewölkt  
Nebel, Stark bewölkt  
   Wind: Süden 13 km/h
Wind: Süden 13 km/h
Temperatur: 4°C
Gefühlt: 1°C
Taupunkt: 3°C
Luftfeuchte: 93%
Luftdruck: 1023 hPa
Bewölkt: Stark bewölkt
Sichtbarkeit: 4 km
Bewölkung: Stark bewölkt 18000 ft
EBCV 200817Z AUTO 19007KT 3600 BR BKN180/// 04/03 Q1023 YLO
EHBK - Maastricht
Aktualisierung: 20-02-2019 08:55
Teilweise bewölkt  
Teilweise bewölkt  
   Wind: SSW 22.2 km/h
Wind: SSW 22.2 km/h
Temperatur: 5°C
Gefühlt: 1°C
Taupunkt: 3°C
Luftfeuchte: 87%
Luftdruck: 1022 hPa
Bewölkt: Teilweise bewölkt
Sichtbarkeit: 9 km
Bewölkung: Teilweise bewölkt
EHBK 200755Z AUTO 20012KT 9000 NSC 05/03 Q1022 NOSIG
ELLX - Luxemburg
Aktualisierung: 20-02-2019 08:50
Nebel, Stark bewölkt  
Nebel, Stark bewölkt  
   Wind: variiert 3.7 km/h
Wind: variiert 3.7 km/h
Temperatur: 1°C
Taupunkt: 1°C
Luftfeuchte: 100%
Luftdruck: 1023 hPa
Bewölkt: Stark bewölkt
Sichtbarkeit: 0 km
Bewölkung: Stark bewölkt
ELLX 200750Z VRB02KT 0100 R24/0225N FG BKN000 01/01 Q1023 TEMPO 0350 FG
EBOS - Oostende
Aktualisierung: 20-02-2019 08:50
Teilweise bewölkt  
Teilweise bewölkt  
   Wind: SSW 13 km/h
Wind: SSW 13 km/h
Temperatur: 3°C
Gefühlt: -1°C
Taupunkt: 1°C
Luftfeuchte: 87%
Luftdruck: 1022 hPa
Bewölkt: Teilweise bewölkt
Sichtbarkeit: 8 km
Bewölkung: Teilweise bewölkt
EBOS 200750Z 20007KT 8000 NSC 03/01 Q1022 NOSIG

Script entwickelt von  Saratoga-weather.org Angepasst für das Template von  Weerstation Leuven

Sie finden unser Wetter-Infos auch auf:

netzwerkwettercom

European Weather Network

WeatherCloud

Weather Underground

AWEKAS

Citizen Weather Observer Program (CWOP)

HAMweather, WeatherForYou, PWS Weather

Von uns verwendete Ausrüstung:

Wetterstation
Davis VP2 Aktiv Plus 6163EU

Wetterprogramm
Weather Display

Davis VP2 Aktiv Plus  6163EU

Weather Display